createdAt,value
2023-02-24T00:02:15.256Z,80.57
2023-02-24T00:04:42.149Z,80.34
2023-02-24T00:07:10.738Z,81.00
2023-02-24T00:09:38.056Z,80.24
2023-02-24T00:12:07.869Z,79.92
2023-02-24T00:14:37.765Z,79.86
2023-02-24T00:17:05.570Z,79.70
2023-02-24T00:19:32.202Z,80.47
2023-02-24T00:21:58.948Z,80.26
2023-02-24T00:24:26.204Z,80.12
2023-02-24T00:26:57.939Z,80.41
2023-02-24T00:29:25.630Z,79.79
2023-02-24T00:31:57.551Z,79.88
2023-02-24T00:34:24.852Z,79.74
2023-02-24T00:36:51.505Z,79.96
2023-02-24T00:39:18.144Z,80.43
2023-02-24T00:41:45.229Z,80.39
2023-02-24T00:44:14.265Z,80.50
2023-02-24T00:46:44.208Z,80.40
2023-02-24T00:49:14.995Z,80.23
2023-02-24T00:51:44.241Z,80.12
2023-02-24T00:54:11.662Z,79.50
2023-02-24T00:56:38.352Z,80.13
2023-02-24T00:59:05.095Z,80.29
2023-02-24T01:01:33.374Z,79.92
2023-02-24T01:04:01.851Z,80.12
2023-02-24T01:06:29.191Z,80.04
2023-02-24T01:08:57.329Z,79.78
2023-02-24T01:11:26.908Z,79.52
2023-02-24T01:13:53.935Z,79.30
2023-02-24T01:16:20.641Z,79.66
2023-02-24T01:18:47.987Z,79.69
2023-02-24T01:21:16.957Z,78.96
2023-02-24T01:23:48.586Z,79.83
2023-02-24T01:26:16.543Z,80.36
2023-02-24T01:28:43.927Z,80.33
2023-02-24T01:31:10.694Z,80.11
2023-02-24T01:33:37.310Z,81.22
2023-02-24T01:36:11.806Z,81.82
2023-02-24T01:38:39.130Z,82.17
2023-02-24T01:41:06.207Z,82.20
2023-02-24T01:43:33.574Z,82.18
2023-02-24T01:46:00.172Z,81.60
2023-02-24T01:48:27.763Z,81.19
2023-02-24T01:50:54.525Z,81.81
2023-02-24T01:53:21.184Z,82.05
2023-02-24T01:55:50.291Z,81.55
2023-02-24T01:58:28.773Z,80.88
2023-02-24T02:00:56.193Z,81.00
2023-02-24T02:03:29.763Z,81.22
2023-02-24T02:06:04.800Z,81.37
2023-02-24T02:08:32.750Z,81.38
2023-02-24T02:11:04.426Z,81.48
2023-02-24T02:13:35.353Z,80.75
2023-02-24T02:16:12.189Z,80.84
2023-02-24T02:18:52.348Z,80.67
2023-02-24T02:21:28.211Z,80.61
2023-02-24T02:24:00.669Z,80.83
2023-02-24T02:26:45.729Z,80.73
2023-02-24T02:29:45.465Z,80.52
2023-02-24T02:32:30.698Z,79.95
2023-02-24T02:35:01.449Z,80.44
2023-02-24T02:37:34.166Z,80.75
2023-02-24T02:40:10.712Z,80.51
2023-02-24T02:42:49.086Z,80.93
2023-02-24T02:45:24.650Z,81.57
2023-02-24T02:48:06.734Z,81.29
2023-02-24T02:50:48.404Z,81.44
2023-02-24T02:53:24.312Z,81.35
2023-02-24T02:56:03.086Z,81.18
2023-02-24T02:58:34.191Z,82.22
2023-02-24T03:01:03.029Z,82.05
2023-02-24T03:03:38.833Z,81.19
2023-02-24T03:06:16.803Z,82.20
2023-02-24T03:08:53.216Z,82.13
2023-02-24T03:11:22.404Z,82.22
2023-02-24T03:13:52.662Z,82.39
2023-02-24T03:16:22.264Z,81.67
2023-02-24T03:18:58.258Z,82.08
2023-02-24T03:21:37.026Z,82.86
2023-02-24T03:24:04.800Z,82.46
2023-02-24T03:26:33.308Z,82.02
2023-02-24T03:29:21.327Z,81.32
2023-02-24T03:32:08.762Z,81.15
2023-02-24T03:34:53.801Z,80.79
2023-02-24T03:37:21.189Z,80.68
2023-02-24T03:39:47.882Z,81.16
2023-02-24T03:42:21.917Z,81.36
2023-02-24T03:44:49.552Z,81.29
2023-02-24T03:47:17.893Z,81.73
2023-02-24T03:49:44.588Z,82.01
2023-02-24T03:52:32.590Z,81.36
2023-02-24T03:55:18.518Z,81.69
2023-02-24T03:58:07.215Z,81.57
2023-02-24T04:00:55.654Z,80.68
2023-02-24T04:03:28.409Z,81.45
2023-02-24T04:06:18.390Z,81.85
2023-02-24T04:09:00.972Z,81.65
2023-02-24T04:11:36.712Z,81.12
2023-02-24T04:14:16.532Z,81.83
2023-02-24T04:16:57.439Z,81.71
2023-02-24T04:19:27.594Z,81.53
2023-02-24T04:21:56.016Z,81.60
2023-02-24T04:24:30.062Z,81.30
2023-02-24T04:27:00.311Z,81.35
2023-02-24T04:29:32.232Z,81.05
2023-02-24T04:32:05.183Z,81.32
2023-02-24T04:34:32.388Z,81.67
2023-02-24T04:37:00.350Z,81.30
2023-02-24T04:39:27.230Z,81.98
2023-02-24T04:41:56.068Z,83.24
2023-02-24T04:44:23.350Z,83.47
2023-02-24T04:46:51.236Z,84.43
2023-02-24T04:49:19.740Z,86.63
2023-02-24T04:51:46.901Z,86.35
2023-02-24T04:54:16.522Z,86.61
2023-02-24T04:56:44.458Z,85.88
2023-02-24T04:59:11.735Z,87.78
2023-02-24T05:01:38.336Z,90.88
2023-02-24T05:04:08.741Z,89.98
2023-02-24T05:06:36.364Z,89.61
2023-02-24T05:09:03.144Z,89.34
2023-02-24T05:11:29.725Z,88.79
2023-02-24T05:13:56.690Z,87.37
2023-02-24T05:16:23.947Z,88.23
2023-02-24T05:18:50.783Z,87.25
2023-02-24T05:21:17.854Z,87.79
2023-02-24T05:23:46.490Z,88.05
2023-02-24T05:26:16.744Z,86.64
2023-02-24T05:28:45.942Z,87.40
2023-02-24T05:31:24.374Z,86.40
2023-02-24T05:33:54.005Z,85.19
2023-02-24T05:36:21.963Z,85.26
2023-02-24T05:38:51.112Z,84.36
2023-02-24T05:41:19.084Z,83.20
2023-02-24T05:43:51.601Z,82.35
2023-02-24T05:46:28.913Z,83.78
2023-02-24T05:48:57.242Z,82.98
2023-02-24T05:51:29.841Z,83.08
2023-02-24T05:53:58.711Z,82.17
2023-02-24T05:56:25.309Z,82.65
2023-02-24T05:58:54.485Z,83.25
2023-02-24T06:01:21.581Z,83.36
2023-02-24T06:03:48.485Z,83.29
2023-02-24T06:06:17.956Z,83.70
2023-02-24T06:08:44.786Z,84.53
2023-02-24T06:11:11.903Z,85.37
2023-02-24T06:13:38.902Z,84.03
2023-02-24T06:16:06.727Z,83.77
2023-02-24T06:18:33.505Z,83.15
2023-02-24T06:21:03.463Z,83.44
2023-02-24T06:23:30.190Z,82.95
2023-02-24T06:26:02.096Z,83.36
2023-02-24T06:28:28.789Z,82.29
2023-02-24T06:30:55.475Z,82.18
2023-02-24T06:33:23.003Z,82.32
2023-02-24T06:35:49.853Z,81.96
2023-02-24T06:38:16.552Z,81.21
2023-02-24T06:40:43.120Z,82.36
2023-02-24T06:43:09.908Z,82.44
2023-02-24T06:45:36.719Z,83.87
2023-02-24T06:48:04.214Z,83.43
2023-02-24T06:50:31.051Z,82.65
2023-02-24T06:52:57.770Z,82.93
2023-02-24T06:55:24.368Z,82.87
2023-02-24T06:57:57.986Z,82.38
2023-02-24T07:00:30.214Z,82.78
2023-02-24T07:02:56.891Z,82.76
2023-02-24T07:05:23.516Z,82.98
2023-02-24T07:07:50.101Z,82.84
2023-02-24T07:10:17.012Z,82.88
2023-02-24T07:12:43.758Z,81.88
2023-02-24T07:15:10.521Z,81.07
2023-02-24T07:17:37.150Z,81.70
2023-02-24T07:20:04.096Z,81.17
2023-02-24T07:22:30.784Z,80.66
2023-02-24T07:24:57.397Z,81.57
2023-02-24T07:27:24.158Z,81.74
2023-02-24T07:29:53.322Z,81.68
2023-02-24T07:32:21.595Z,81.85
2023-02-24T07:34:48.377Z,82.35
2023-02-24T07:37:14.999Z,81.99
2023-02-24T07:39:41.562Z,81.44
2023-02-24T07:42:10.034Z,80.92
2023-02-24T07:44:44.270Z,81.16
2023-02-24T07:47:11.450Z,80.02
2023-02-24T07:49:39.691Z,79.85
2023-02-24T07:52:06.488Z,80.17
2023-02-24T07:54:33.217Z,80.17
2023-02-24T07:57:01.056Z,79.94
2023-02-24T07:59:33.188Z,80.22
2023-02-24T08:02:01.025Z,80.93
2023-02-24T08:04:30.677Z,80.90
2023-02-24T08:06:57.860Z,79.36
2023-02-24T08:09:26.969Z,79.68
2023-02-24T08:11:55.552Z,79.92
2023-02-24T08:14:27.958Z,79.23
2023-02-24T08:16:56.315Z,78.69
2023-02-24T08:19:22.939Z,78.72
2023-02-24T08:21:52.870Z,78.70
2023-02-24T08:24:24.300Z,77.89
2023-02-24T08:26:53.823Z,77.69
2023-02-24T08:29:20.522Z,78.56
2023-02-24T08:31:47.460Z,78.32
2023-02-24T08:34:14.321Z,78.97
2023-02-24T08:36:41.007Z,76.97
2023-02-24T08:39:08.002Z,77.63
2023-02-24T08:41:34.877Z,78.84
2023-02-24T08:44:01.533Z,78.30
2023-02-24T08:46:28.260Z,79.15
2023-02-24T08:48:57.659Z,77.60
2023-02-24T08:51:28.394Z,77.10
2023-02-24T08:54:00.662Z,76.28
2023-02-24T08:56:30.436Z,76.57
2023-02-24T08:59:00.021Z,74.62
2023-02-24T09:01:33.112Z,76.36
2023-02-24T09:04:01.571Z,74.73
2023-02-24T09:06:37.992Z,73.59
2023-02-24T09:09:05.346Z,74.06
2023-02-24T09:11:31.931Z,73.27
2023-02-24T09:13:58.712Z,74.55
2023-02-24T09:16:25.457Z,76.09
2023-02-24T09:18:52.281Z,75.42
2023-02-24T09:21:19.183Z,74.89
2023-02-24T09:23:46.187Z,76.72
2023-02-24T09:26:15.850Z,76.95
2023-02-24T09:28:42.655Z,78.76
2023-02-24T09:31:09.409Z,75.34
2023-02-24T09:33:38.280Z,74.51
2023-02-24T09:36:11.083Z,72.71
2023-02-24T09:38:38.778Z,72.71
2023-02-24T09:41:23.712Z,71.19
2023-02-24T09:43:50.458Z,71.22
2023-02-24T09:46:17.477Z,70.59
2023-02-24T09:49:17.833Z,70.73
2023-02-24T09:51:45.371Z,71.03
2023-02-24T09:54:18.932Z,70.24
2023-02-24T09:57:01.827Z,69.30
2023-02-24T09:59:36.422Z,71.11
2023-02-24T10:02:24.336Z,70.04
2023-02-24T10:05:07.358Z,69.50
2023-02-24T10:07:40.682Z,68.88
2023-02-24T10:10:31.759Z,69.57
2023-02-24T10:24:40.725Z,69.95
2023-02-24T10:27:26.042Z,69.37
2023-02-24T10:30:08.109Z,70.21
2023-02-24T10:32:37.684Z,68.10
2023-02-24T10:35:04.566Z,68.53
2023-02-24T10:37:31.248Z,67.57
2023-02-24T10:40:00.250Z,67.43
2023-02-24T10:42:30.881Z,66.88
2023-02-24T10:45:24.652Z,67.36
2023-02-24T10:47:57.011Z,68.05
2023-02-24T10:50:27.451Z,68.51
2023-02-24T10:53:03.087Z,68.21
2023-02-24T10:55:47.810Z,67.99
2023-02-24T10:58:35.482Z,67.30
2023-02-24T11:01:17.054Z,68.15
2023-02-24T11:03:54.225Z,68.60
2023-02-24T11:06:22.755Z,68.81
2023-02-24T11:08:57.467Z,68.58
2023-02-24T11:11:34.693Z,68.24
2023-02-24T11:14:03.075Z,68.17
2023-02-24T11:16:39.833Z,67.61
2023-02-24T11:19:06.802Z,67.25
2023-02-24T11:21:33.692Z,67.46
2023-02-24T11:24:01.110Z,67.42
2023-02-24T11:26:40.509Z,67.25
2023-02-24T11:29:26.585Z,67.75
2023-02-24T11:31:59.379Z,67.73
2023-02-24T11:34:38.594Z,67.27
2023-02-24T11:37:34.920Z,68.85
2023-02-24T11:40:13.858Z,68.26
2023-02-24T11:42:46.401Z,67.88
2023-02-24T11:45:27.134Z,68.11
2023-02-24T11:48:04.318Z,67.22
2023-02-24T11:50:37.234Z,67.25
2023-02-24T11:53:13.619Z,66.11
2023-02-24T11:55:45.314Z,65.87
2023-02-24T11:58:23.086Z,64.83
2023-02-24T12:01:14.075Z,63.30
2023-02-24T12:04:01.205Z,65.12
2023-02-24T12:06:34.410Z,63.20
2023-02-24T12:09:11.997Z,64.26
2023-02-24T12:11:59.990Z,64.46
2023-02-24T12:14:47.465Z,62.28
2023-02-24T12:17:22.154Z,62.17
2023-02-24T12:19:58.255Z,62.13
2023-02-24T12:22:32.311Z,61.56
2023-02-24T12:24:58.990Z,61.63
2023-02-24T12:27:46.154Z,61.35
2023-02-24T12:30:44.669Z,63.25
2023-02-24T12:33:37.868Z,63.32
2023-02-24T12:36:22.576Z,64.00
2023-02-24T12:39:13.427Z,63.23
2023-02-24T12:41:59.990Z,61.91
2023-02-24T12:44:52.491Z,62.53
2023-02-24T12:47:37.615Z,62.20
2023-02-24T12:50:23.439Z,63.37
2023-02-24T12:52:57.117Z,63.75
2023-02-24T12:55:34.178Z,63.58
2023-02-24T12:58:16.014Z,65.66
2023-02-24T13:01:09.949Z,68.37
2023-02-24T13:03:48.703Z,68.86
2023-02-24T13:06:25.075Z,68.43
2023-02-24T13:09:03.465Z,69.54
2023-02-24T13:11:48.545Z,72.07
2023-02-24T13:14:30.452Z,72.99
2023-02-24T13:17:24.587Z,73.76
2023-02-24T13:19:52.479Z,74.69
2023-02-24T13:22:20.841Z,75.38
2023-02-24T13:25:00.169Z,74.36
2023-02-24T13:27:38.970Z,75.09
2023-02-24T13:30:11.920Z,76.17
2023-02-24T13:32:42.626Z,76.61
2023-02-24T13:35:15.554Z,76.89
2023-02-24T13:37:44.924Z,77.63
2023-02-24T13:40:21.085Z,77.63
2023-02-24T13:42:57.039Z,77.56
2023-02-24T13:45:30.586Z,78.84
2023-02-24T13:48:15.711Z,79.38
2023-02-24T13:51:01.775Z,80.42
2023-02-24T13:54:02.743Z,79.99
2023-02-24T13:56:32.566Z,78.99
2023-02-24T13:59:09.582Z,79.54
2023-02-24T14:01:49.468Z,79.67
2023-02-24T14:04:29.792Z,80.46
2023-02-24T14:07:02.312Z,80.20
2023-02-24T14:09:39.856Z,80.08
2023-02-24T14:12:14.738Z,81.09
2023-02-24T14:14:44.343Z,81.18
2023-02-24T14:17:40.168Z,81.45
2023-02-24T14:20:09.953Z,82.39
2023-02-24T14:22:45.477Z,82.26
2023-02-24T14:25:13.164Z,82.46
2023-02-24T14:27:40.117Z,83.05
2023-02-24T14:30:08.350Z,82.62
2023-02-24T14:32:35.329Z,82.98
2023-02-24T14:35:02.110Z,83.74
2023-02-24T14:37:31.724Z,84.40
2023-02-24T14:40:00.369Z,83.87
2023-02-24T14:42:27.762Z,85.00
2023-02-24T14:44:57.689Z,84.48
2023-02-24T14:47:27.095Z,85.03
2023-02-24T14:49:55.099Z,84.91
2023-02-24T14:52:33.853Z,83.74
2023-02-24T14:55:22.900Z,83.10
2023-02-24T14:58:00.782Z,83.63
2023-02-24T15:00:32.544Z,83.60
2023-02-24T15:03:41.060Z,83.77
2023-02-24T15:06:16.097Z,83.41
2023-02-24T15:08:50.800Z,83.60
2023-02-24T15:11:17.461Z,82.97
2023-02-24T15:14:07.161Z,83.31
2023-02-24T15:16:41.514Z,83.70
2023-02-24T15:19:36.230Z,83.35
2023-02-24T15:22:26.691Z,84.29
2023-02-24T15:25:10.996Z,83.19
2023-02-24T15:27:37.794Z,84.09
2023-02-24T15:30:24.886Z,83.80
2023-02-24T15:33:04.606Z,84.24
2023-02-24T15:35:31.679Z,85.20
2023-02-24T15:38:01.565Z,87.81
2023-02-24T15:40:29.803Z,86.91
2023-02-24T15:43:09.962Z,85.87
2023-02-24T15:45:39.182Z,85.06
2023-02-24T15:48:23.068Z,86.66
2023-02-24T15:50:49.873Z,87.13
2023-02-24T15:53:16.972Z,85.89
2023-02-24T15:55:44.671Z,86.81
2023-02-24T15:58:16.522Z,86.64
2023-02-24T16:00:43.563Z,85.61
2023-02-24T16:03:10.243Z,85.57
2023-02-24T16:05:38.695Z,86.30
2023-02-24T16:08:05.455Z,86.26
2023-02-24T16:10:32.322Z,85.36
2023-02-24T16:13:02.379Z,86.74
2023-02-24T16:15:35.500Z,87.08
2023-02-24T16:18:02.670Z,86.90
2023-02-24T16:20:30.767Z,86.29
2023-02-24T16:22:59.607Z,86.86
2023-02-24T16:25:27.439Z,87.74
2023-02-24T16:27:54.829Z,87.33
2023-02-24T16:30:22.930Z,87.26
2023-02-24T16:32:50.130Z,86.29
2023-02-24T16:35:16.926Z,86.23
2023-02-24T16:37:46.297Z,86.59
2023-02-24T16:40:19.596Z,87.75
2023-02-24T16:42:48.182Z,87.74
2023-02-24T16:45:14.914Z,85.88
2023-02-24T16:47:43.532Z,85.66
2023-02-24T16:50:24.954Z,85.47
2023-02-24T16:52:51.895Z,85.66
2023-02-24T16:55:18.971Z,85.30
2023-02-24T16:57:45.965Z,85.21
2023-02-24T17:00:14.863Z,86.47
2023-02-24T17:02:43.913Z,86.01
2023-02-24T17:05:19.610Z,85.67
2023-02-24T17:07:49.319Z,85.97
2023-02-24T17:10:17.516Z,86.18
2023-02-24T17:12:45.077Z,86.59
2023-02-24T17:15:17.182Z,87.05
2023-02-24T17:17:44.110Z,87.21
2023-02-24T17:20:20.445Z,87.56
2023-02-24T17:22:47.607Z,87.44
2023-02-24T17:25:16.447Z,87.32
2023-02-24T17:27:43.314Z,87.32
2023-02-24T17:30:15.725Z,86.79
2023-02-24T17:32:42.480Z,87.18
2023-02-24T17:35:09.693Z,86.32
2023-02-24T17:37:36.537Z,87.69
2023-02-24T17:40:06.418Z,87.68
2023-02-24T17:42:33.803Z,87.36
2023-02-24T17:45:00.591Z,86.98
2023-02-24T17:47:27.880Z,86.50
2023-02-24T17:49:54.540Z,87.14
2023-02-24T17:52:21.337Z,88.00
2023-02-24T17:54:47.922Z,87.71
2023-02-24T17:57:14.903Z,87.28
2023-02-24T17:59:45.279Z,88.10
2023-02-24T18:02:13.475Z,88.11
2023-02-24T18:04:40.172Z,88.55
2023-02-24T18:07:08.077Z,88.94
2023-02-24T18:09:34.711Z,89.13
2023-02-24T18:12:01.580Z,89.98
2023-02-24T18:14:28.376Z,90.69
2023-02-24T18:16:55.120Z,90.43
2023-02-24T18:19:21.750Z,90.90
2023-02-24T18:21:48.499Z,90.48
2023-02-24T18:24:15.101Z,89.76
2023-02-24T18:26:41.879Z,89.04
2023-02-24T18:29:08.484Z,88.03
2023-02-24T18:31:35.668Z,87.17
2023-02-24T18:34:02.412Z,87.78
2023-02-24T18:36:29.109Z,87.14
2023-02-24T18:38:58.340Z,87.52
2023-02-24T18:41:25.287Z,88.37
2023-02-24T18:43:56.000Z,88.67
2023-02-24T18:46:23.831Z,87.73
2023-02-24T18:48:51.670Z,87.96
2023-02-24T18:51:23.751Z,87.30
2023-02-24T18:53:52.776Z,86.93
2023-02-24T18:56:23.693Z,86.74
2023-02-24T18:58:54.948Z,86.29
2023-02-24T19:01:28.969Z,86.12
2023-02-24T19:03:56.735Z,85.62
2023-02-24T19:06:24.876Z,85.81
2023-02-24T19:09:07.226Z,85.79
2023-02-24T19:11:34.341Z,86.19
2023-02-24T19:14:00.967Z,85.53
2023-02-24T19:16:28.526Z,86.29
2023-02-24T19:18:57.248Z,86.55
2023-02-24T19:21:26.494Z,86.05
2023-02-24T19:23:53.766Z,85.76
2023-02-24T19:26:24.226Z,85.40
2023-02-24T19:28:52.529Z,85.42
2023-02-24T19:31:23.056Z,85.10
2023-02-24T19:33:54.301Z,85.53
2023-02-24T19:36:22.498Z,85.76
2023-02-24T19:38:49.818Z,86.62
2023-02-24T19:41:16.519Z,86.19
2023-02-24T19:43:45.657Z,86.36
2023-02-24T19:46:13.882Z,85.83
2023-02-24T19:48:41.356Z,85.83
2023-02-24T19:51:27.046Z,86.42
2023-02-24T19:53:55.809Z,85.24
2023-02-24T19:56:27.767Z,85.87
2023-02-24T19:58:56.438Z,85.80
2023-02-24T20:01:24.498Z,85.87
2023-02-24T20:03:57.557Z,86.46
2023-02-24T20:06:31.856Z,86.64
2023-02-24T20:09:00.300Z,86.62
2023-02-24T20:11:29.099Z,86.02
2023-02-24T20:13:59.632Z,85.76
2023-02-24T20:16:27.750Z,85.98
2023-02-24T20:18:55.272Z,86.29
2023-02-24T20:21:32.670Z,86.67
2023-02-24T20:24:04.950Z,87.62
2023-02-24T20:26:35.450Z,86.68
2023-02-24T20:29:02.700Z,86.73
2023-02-24T20:31:30.172Z,86.99
2023-02-24T20:33:57.034Z,87.60
2023-02-24T20:36:28.402Z,88.16
2023-02-24T20:38:57.696Z,88.14
2023-02-24T20:41:24.846Z,88.53
2023-02-24T20:43:51.547Z,88.35
2023-02-24T20:46:20.354Z,86.80
2023-02-24T20:48:47.280Z,87.46
2023-02-24T20:51:13.985Z,86.90
2023-02-24T20:53:54.589Z,87.27
2023-02-24T20:56:23.675Z,87.35
2023-02-24T20:58:53.638Z,88.18
2023-02-24T21:01:21.121Z,88.67
2023-02-24T21:03:48.446Z,88.72
2023-02-24T21:06:17.122Z,88.46
2023-02-24T21:08:44.432Z,89.06
2023-02-24T21:11:12.774Z,88.84
2023-02-24T21:13:41.045Z,88.42
2023-02-24T21:16:08.599Z,89.19
2023-02-24T21:18:35.926Z,88.98
2023-02-24T21:21:02.575Z,89.39
2023-02-24T21:23:29.188Z,89.29
2023-02-24T21:25:55.846Z,89.21
2023-02-24T21:28:23.150Z,89.63
2023-02-24T21:30:50.408Z,88.53
2023-02-24T21:33:19.217Z,87.18
2023-02-24T21:36:06.653Z,87.47
2023-02-24T21:38:34.202Z,88.16
2023-02-24T21:41:08.838Z,88.32
2023-02-24T21:43:35.546Z,88.67
2023-02-24T21:46:03.496Z,88.41
2023-02-24T21:48:30.261Z,88.17
2023-02-24T21:50:58.611Z,88.07
2023-02-24T21:53:26.401Z,87.59
2023-02-24T21:56:23.866Z,88.48
2023-02-24T21:58:53.164Z,88.10
2023-02-24T22:01:25.596Z,88.48
2023-02-24T22:03:58.768Z,88.09
2023-02-24T22:06:31.338Z,86.97
2023-02-24T22:09:00.186Z,87.40
2023-02-24T22:11:40.973Z,87.51
2023-02-24T22:14:11.655Z,86.48
2023-02-24T22:16:42.429Z,86.56
2023-02-24T22:19:20.730Z,85.66
2023-02-24T22:21:53.948Z,85.95
2023-02-24T22:24:23.606Z,85.89
2023-02-24T22:26:53.385Z,86.11
2023-02-24T22:29:29.373Z,84.90
2023-02-24T22:31:58.029Z,84.39
2023-02-24T22:34:32.941Z,85.48
2023-02-24T22:37:01.070Z,85.64
2023-02-24T22:39:29.887Z,84.36
2023-02-24T22:42:04.369Z,83.62
2023-02-24T22:44:42.821Z,83.78
2023-02-24T22:47:14.494Z,83.50
2023-02-24T22:49:43.123Z,84.15
2023-02-24T22:52:17.403Z,84.01
2023-02-24T22:54:47.951Z,84.31
2023-02-24T22:57:17.430Z,84.13
2023-02-24T22:59:47.807Z,84.13
2023-02-24T23:02:16.033Z,84.38
2023-02-24T23:04:43.332Z,84.56
2023-02-24T23:07:10.779Z,83.83
2023-02-24T23:09:37.398Z,83.85
2023-02-24T23:12:04.420Z,83.86
2023-02-24T23:14:31.378Z,83.42
2023-02-24T23:16:59.029Z,82.72
2023-02-24T23:19:38.425Z,83.31
2023-02-24T23:22:06.653Z,82.70
2023-02-24T23:24:33.401Z,82.51
2023-02-24T23:27:00.285Z,82.14
2023-02-24T23:29:27.338Z,82.19
2023-02-24T23:31:54.269Z,81.68
2023-02-24T23:34:21.130Z,81.47
2023-02-24T23:36:48.046Z,82.19
2023-02-24T23:39:18.145Z,82.29
2023-02-24T23:41:45.310Z,82.23
2023-02-24T23:44:11.964Z,81.86
2023-02-24T23:46:38.609Z,81.91
2023-02-24T23:49:06.383Z,82.39
2023-02-24T23:51:47.080Z,82.90
2023-02-24T23:54:15.619Z,83.21
2023-02-24T23:56:42.239Z,83.51
2023-02-24T23:59:08.984Z,83.30
